Kimble County Airport
KJCT : now visible

Airfield :











YOU CAN JOIN US ON...

 
LOGIN :

Register | Disclaimer

   EN    FR    IT 

 









Legend :    VFR   Marginal VFR   IFR   Intensive IFR   Very Intensive IFR
Visi :
Ceiling :
>= 8 km
>= 3000ft
5 to 8 km
1000 to 3000 ft
1500m to 5 km
500 to 1000 ft
800 to 1500m
200 to 500 ft
< 800m
< 200 ft
Symbols :   Thunderstorms  Fog  Heavy snow  Heavy precipitations  Wind > 20 kt







- Airport Elevation : 1749 ft


KJCT - Kimble County

CURRENT METAR :
  • 210651Z AUTO 16008KT 10SM CLR 27/21 A2995 RMK AO2 SLP101 T02720206

EXPIRED METARs :
  • 210551Z AUTO 14008KT 10SM CLR 28/20 A2995 RMK AO2 SLP101 T02780200 10361 20278 403720222 51011
  • 210451Z AUTO 15011KT 10SM CLR 29/19 A2995 RMK AO2 SLP099 T02940189

TAF KJCT
Valid from the 21 at 06:00 until the 22 at 06:00 UTC


210520Z 2106/2206 15009KT P6SM SKC
FM211500 19012G17KT P6SM SKC
KZHU FIR / North America



MET'MAP, your aeronautical weather chart ! - Copyright ORBIFLY December 2007 - Disclaimer

ORBIFLY MET'MAP TEAM :

Programming & Development : Alexandra Zaïnal
Concept & Development : Baudouin d'Aumeries
Co-Development & Prog : Marc-Olivier Méhu
Technical & hardware support : Manuel Goepfert

Contact : metmap@orbifly.com




SOURCES & CREDITS :

   NOAA       Earth
Advisory